Time;durP1;ratioP1;P1;durP2;ratioP2;P2;SDS_P1;SDS_P2;PMS_P1;PMS_P2;Temp;Humidity;BMP_temperature;BMP_pressure;BME280_temperature;BME280_humidity;BME280_pressure;Samples;Min_cycle;Max_cycle;Signal;HPM_P1;HPM_P2
2022/03/28 00:02:06;;;;;;;13.70;9.60;;;;;;;10.59;100.00;100015.44;5020495;28;20194;-79
2022/03/28 00:04:34;;;;;;;13.77;9.03;;;;;;;10.49;100.00;100014.19;5030382;28;20224;-79
2022/03/28 00:07:02;;;;;;;12.83;8.77;;;;;;;10.52;100.00;100018.50;5029103;28;20204;-79
2022/03/28 00:09:32;;;;;;;11.47;8.47;;;;;;;10.45;100.00;100017.06;5039376;28;20204;-79
2022/03/28 00:12:00;;;;;;;11.63;8.47;;;;;;;10.51;100.00;100007.00;5066784;28;20208;-79
2022/03/28 00:14:28;;;;;;;12.33;9.07;;;;;;;10.44;100.00;100002.97;5073910;28;20200;-79
2022/03/28 00:16:57;;;;;;;12.90;8.80;;;;;;;10.39;100.00;100006.78;5070355;28;20192;-79
2022/03/28 00:19:26;;;;;;;12.87;9.10;;;;;;;10.36;100.00;100004.28;5073895;28;20220;-79
2022/03/28 00:21:56;;;;;;;13.70;9.27;;;;;;;10.22;100.00;99995.22;5070754;28;20208;-79
2022/03/28 00:24:25;;;;;;;10.60;8.53;;;;;;;10.34;100.00;99995.56;5075942;28;20200;-79
2022/03/28 00:26:54;;;;;;;11.43;8.77;;;;;;;10.20;100.00;99999.69;5073029;28;20193;-79
2022/03/28 00:29:23;;;;;;;10.87;9.07;;;;;;;10.23;100.00;99996.94;5068589;28;20196;-79
2022/03/28 00:31:52;;;;;;;11.50;9.07;;;;;;;10.31;100.00;99996.56;5075589;28;20196;-79
2022/03/28 00:34:21;;;;;;;10.87;8.57;;;;;;;10.29;100.00;99988.69;5070158;28;20287;-79
2022/03/28 00:36:52;;;;;;;12.20;8.70;;;;;;;10.34;100.00;99977.88;5071133;28;20204;-79
2022/03/28 00:39:22;;;;;;;11.30;8.90;;;;;;;10.26;100.00;99983.56;5078011;28;20212;-79
2022/03/28 00:41:52;;;;;;;9.70;8.30;;;;;;;10.26;100.00;99988.84;5072900;28;20184;-79
2022/03/28 00:44:21;;;;;;;10.47;8.17;;;;;;;10.10;100.00;99987.84;5074285;28;20234;-79
2022/03/28 00:46:50;;;;;;;12.07;8.23;;;;;;;10.00;100.00;99981.28;5030622;28;20644;-79
2022/03/28 00:49:19;;;;;;;12.20;8.33;;;;;;;9.95;100.00;99986.81;5033688;28;20224;-79
2022/03/28 00:51:47;;;;;;;10.03;8.07;;;;;;;9.86;100.00;99989.03;5028789;28;20206;-79
2022/03/28 00:54:17;;;;;;;9.97;8.07;;;;;;;9.87;100.00;99986.31;5031152;28;20281;-79
2022/03/28 00:56:47;;;;;;;11.60;8.67;;;;;;;9.82;100.00;99983.03;4982608;28;20201;-79
2022/03/28 00:59:18;;;;;;;10.70;9.20;;;;;;;9.69;100.00;99981.91;5032981;28;20664;-79
2022/03/28 01:01:47;;;;;;;9.57;8.33;;;;;;;9.71;100.00;99985.31;5034984;28;20221;-79
2022/03/28 01:04:16;;;;;;;10.07;8.20;;;;;;;9.93;100.00;99978.06;5034371;28;20237;-79
2022/03/28 01:06:45;;;;;;;9.97;8.30;;;;;;;9.91;100.00;99981.72;5030337;28;20194;-79
2022/03/28 01:09:14;;;;;;;10.47;8.20;;;;;;;9.86;100.00;99978.47;5032702;28;20202;-79
2022/03/28 01:11:45;;;;;;;10.20;8.30;;;;;;;9.84;100.00;99981.16;5031353;28;20251;-79
2022/03/28 01:14:14;;;;;;;10.70;8.13;;;;;;;9.82;100.00;99977.72;5032854;28;20244;-79
2022/03/28 01:19:24;;;;;;;11.97;8.37;;;;;;;9.75;100.00;99971.91;5031282;28;20229;-79
2022/03/28 01:21:55;;;;;;;9.77;8.03;;;;;;;9.67;100.00;99975.81;5032626;28;20221;-79
2022/03/28 01:24:24;;;;;;;11.27;8.07;;;;;;;9.83;100.00;99960.06;5035264;28;20209;-79
2022/03/28 01:26:54;;;;;;;10.50;7.93;;;;;;;9.77;100.00;99961.22;5007978;28;20243;-79
2022/03/28 01:29:25;;;;;;;10.30;7.80;;;;;;;9.82;100.00;99961.84;5031658;28;20197;-79
2022/03/28 01:31:56;;;;;;;11.03;8.30;;;;;;;9.71;100.00;99958.88;5032491;28;20202;-79
2022/03/28 01:34:24;;;;;;;10.07;8.27;;;;;;;9.72;100.00;99957.94;5032107;28;20193;-79
2022/03/28 01:36:55;;;;;;;10.33;8.17;;;;;;;9.64;100.00;99949.50;5012002;28;20209;-78
2022/03/28 01:39:25;;;;;;;14.60;8.63;;;;;;;9.53;100.00;99952.66;5033138;28;20220;-79
2022/03/28 01:41:54;;;;;;;10.70;8.53;;;;;;;9.46;100.00;99951.25;5031634;28;20202;-79
2022/03/28 01:44:22;;;;;;;10.23;8.13;;;;;;;9.59;100.00;99947.09;5027747;28;20202;-79
2022/03/28 01:46:50;;;;;;;9.93;8.07;;;;;;;9.49;100.00;99948.44;5032373;28;20190;-78
2022/03/28 01:49:20;;;;;;;9.93;8.30;;;;;;;9.48;100.00;99948.53;5037377;28;20288;-79
2022/03/28 01:51:50;;;;;;;12.10;9.00;;;;;;;9.52;100.00;99947.44;5039942;28;20194;-79
2022/03/28 01:54:20;;;;;;;12.17;8.40;;;;;;;9.41;100.00;99948.81;5035982;28;20210;-79
2022/03/28 01:56:49;;;;;;;10.07;8.33;;;;;;;9.28;100.00;99946.81;5035191;28;20220;-79
2022/03/28 01:59:18;;;;;;;9.93;7.83;;;;;;;9.32;100.00;99943.09;5035576;28;20214;-79
2022/03/28 02:01:46;;;;;;;10.63;8.70;;;;;;;9.43;100.00;99946.09;5033855;28;20205;-79
2022/03/28 02:04:15;;;;;;;10.20;8.30;;;;;;;9.21;100.00;99938.28;5037284;28;20206;-79
2022/03/28 02:06:43;;;;;;;10.93;8.83;;;;;;;9.14;100.00;99932.41;5033248;28;20194;-79
2022/03/28 02:09:12;;;;;;;9.20;7.87;;;;;;;9.24;100.00;99937.28;5035637;28;20205;-79
2022/03/28 02:11:42;;;;;;;9.73;7.70;;;;;;;9.25;100.00;99933.72;5032118;28;20676;-79
2022/03/28 02:14:10;;;;;;;9.30;7.63;;;;;;;9.21;100.00;99924.22;5031948;28;20201;-79
2022/03/28 02:16:38;;;;;;;9.83;7.33;;;;;;;9.08;100.00;99923.94;5034764;28;20205;-79
2022/03/28 02:19:07;;;;;;;10.93;8.37;;;;;;;8.99;100.00;99919.94;5033072;28;20368;-79
2022/03/28 02:21:35;;;;;;;13.17;8.83;;;;;;;9.05;100.00;99921.41;5031431;28;20193;-80
2022/03/28 02:24:06;;;;;;;9.60;7.77;;;;;;;8.96;100.00;99920.03;5035586;28;20228;-79
2022/03/28 02:26:35;;;;;;;11.20;9.37;;;;;;;8.92;100.00;99923.75;5034417;28;20216;-79
2022/03/28 02:29:10;;;;;;;11.83;8.87;;;;;;;8.82;100.00;99910.09;5035517;28;20201;-79
2022/03/28 02:31:40;;;;;;;12.50;9.00;;;;;;;8.84;100.00;99916.16;5034370;28;20200;-79
2022/03/28 02:34:09;;;;;;;12.33;8.73;;;;;;;8.86;100.00;99916.09;5034612;28;20649;-79
2022/03/28 02:36:39;;;;;;;11.13;8.37;;;;;;;8.78;100.00;99912.94;5039073;28;20224;-79
2022/03/28 02:39:07;;;;;;;9.63;7.87;;;;;;;8.69;100.00;99906.31;5033472;28;20222;-79
2022/03/28 02:41:36;;;;;;;9.80;7.97;;;;;;;8.76;100.00;99905.09;5040570;28;20190;-79
2022/03/28 02:44:08;;;;;;;10.77;8.50;;;;;;;8.57;100.00;99901.53;5033922;28;20718;-79
2022/03/28 02:46:38;;;;;;;11.03;8.00;;;;;;;8.60;100.00;99904.06;5072512;28;20216;-78
2022/03/28 02:49:06;;;;;;;13.13;8.13;;;;;;;8.50;100.00;99900.97;5072685;28;20651;-79
2022/03/28 02:51:34;;;;;;;10.33;8.23;;;;;;;8.37;100.00;99902.41;5073702;28;20188;-79
2022/03/28 02:54:03;;;;;;;12.40;9.40;;;;;;;8.33;100.00;99899.03;5073151;28;20188;-79
2022/03/28 02:56:31;;;;;;;15.77;9.97;;;;;;;8.21;100.00;99904.84;5051555;28;20250;-79
2022/03/28 02:59:00;;;;;;;13.33;9.57;;;;;;;8.38;100.00;99908.53;5049297;28;20219;-79
2022/03/28 03:01:30;;;;;;;11.67;9.27;;;;;;;8.44;100.00;99898.59;5049100;28;20192;-79
2022/03/28 03:03:59;;;;;;;12.07;9.50;;;;;;;8.43;100.00;99896.88;5047591;28;20204;-79
2022/03/28 03:06:27;;;;;;;11.40;9.17;;;;;;;8.51;100.00;99894.75;5041980;28;20644;-79
2022/03/28 03:08:55;;;;;;;13.10;9.63;;;;;;;8.51;100.00;99892.13;5048435;28;20418;-79
2022/03/28 03:11:25;;;;;;;13.30;9.87;;;;;;;8.59;100.00;99892.66;5043822;28;20189;-79
2022/03/28 03:13:56;;;;;;;12.63;9.23;;;;;;;8.57;100.00;99883.91;5044436;28;20201;-79
2022/03/28 03:16:24;;;;;;;11.47;9.07;;;;;;;8.56;100.00;99878.69;5019080;28;20201;-79
2022/03/28 03:18:54;;;;;;;10.77;9.27;;;;;;;8.53;100.00;99876.22;5049776;28;20205;-79
2022/03/28 03:21:23;;;;;;;11.57;8.97;;;;;;;8.61;100.00;99874.09;5062396;28;20201;-79
2022/03/28 03:23:51;;;;;;;11.70;9.40;;;;;;;8.50;100.00;99861.38;5071296;28;20199;-79
2022/03/28 03:26:19;;;;;;;13.47;10.27;;;;;;;8.51;100.00;99860.44;5069561;28;20208;-79
2022/03/28 03:28:48;;;;;;;11.97;9.50;;;;;;;8.43;100.00;99859.91;5080013;27;20237;-79
2022/03/28 03:31:17;;;;;;;12.27;9.50;;;;;;;8.44;100.00;99866.91;5077517;28;20208;-79
2022/03/28 03:33:45;;;;;;;12.40;9.20;;;;;;;8.50;100.00;99858.72;5072938;28;20188;-79
2022/03/28 03:36:19;;;;;;;12.47;9.60;;;;;;;8.46;100.00;99856.28;5073258;28;20196;-79
2022/03/28 03:38:50;;;;;;;12.20;8.80;;;;;;;8.39;100.00;99860.09;5077630;28;20221;-79
2022/03/28 03:41:19;;;;;;;13.00;8.83;;;;;;;8.17;100.00;99857.50;5073768;28;20234;-79
2022/03/28 03:43:47;;;;;;;10.57;8.93;;;;;;;8.16;100.00;99851.38;5076390;28;20266;-79
2022/03/28 03:46:15;;;;;;;10.73;8.90;;;;;;;8.15;100.00;99848.81;5075230;28;20281;-79
2022/03/28 03:48:44;;;;;;;12.97;9.33;;;;;;;8.08;100.00;99850.00;5072691;28;20204;-79
2022/03/28 03:51:17;;;;;;;12.17;9.30;;;;;;;7.99;100.00;99857.34;5075033;28;20200;-79
2022/03/28 03:53:48;;;;;;;11.93;9.40;;;;;;;7.88;100.00;99850.81;5074269;28;20226;-79
2022/03/28 03:56:16;;;;;;;12.43;9.80;;;;;;;7.99;100.00;99844.19;5070971;28;20299;-79
2022/03/28 03:58:44;;;;;;;15.13;9.10;;;;;;;7.98;100.00;99844.25;5074120;28;20188;-79
2022/03/28 04:01:13;;;;;;;13.37;8.57;;;;;;;7.81;100.00;99847.59;5076018;28;20212;-79
2022/03/28 04:03:44;;;;;;;13.80;8.90;;;;;;;7.80;100.00;99834.47;5072620;28;20188;-79
2022/03/28 04:06:12;;;;;;;15.13;11.40;;;;;;;7.77;100.00;99842.50;5076576;28;20200;-79
2022/03/28 04:08:40;;;;;;;17.83;12.33;;;;;;;8.00;100.00;99842.38;5072515;28;20219;-79
2022/03/28 04:11:11;;;;;;;15.67;10.73;;;;;;;7.91;100.00;99837.50;5070387;28;20203;-79
2022/03/28 04:13:41;;;;;;;14.33;10.67;;;;;;;8.11;100.00;99839.31;5072634;28;20263;-79
2022/03/28 04:16:10;;;;;;;13.03;9.67;;;;;;;7.97;100.00;99830.19;5073449;28;20188;-79
2022/03/28 04:18:38;;;;;;;16.87;10.57;;;;;;;7.92;100.00;99834.81;5072391;28;20206;-79
2022/03/28 04:21:10;;;;;;;15.60;10.90;;;;;;;7.86;100.00;99835.06;5073213;28;20222;-79
2022/03/28 04:23:41;;;;;;;12.73;10.20;;;;;;;7.72;100.00;99833.03;5014041;28;20194;-79
2022/03/28 04:26:10;;;;;;;13.60;10.43;;;;;;;7.55;100.00;99832.84;5009007;28;20199;-79
2022/03/28 04:28:38;;;;;;;13.80;9.80;;;;;;;7.48;100.00;99831.38;5003629;28;20198;-79
2022/03/28 04:31:07;;;;;;;14.33;10.90;;;;;;;7.42;100.00;99829.84;5011640;28;20194;-79
2022/03/28 04:33:37;;;;;;;15.30;10.50;;;;;;;7.43;100.00;99826.31;5006936;28;20259;-79
2022/03/28 04:36:06;;;;;;;13.27;10.00;;;;;;;7.37;100.00;99823.91;5009317;28;20257;-79
2022/03/28 04:38:34;;;;;;;13.77;10.20;;;;;;;7.31;100.00;99832.03;5007926;28;20216;-79
2022/03/28 04:41:03;;;;;;;13.27;9.87;;;;;;;7.26;100.00;99823.50;5018746;28;20216;-79
2022/03/28 04:43:34;;;;;;;13.17;9.50;;;;;;;7.18;100.00;99825.56;5073317;28;20200;-79
2022/03/28 04:46:04;;;;;;;11.57;8.73;;;;;;;7.13;100.00;99827.50;5068882;28;20228;-79
2022/03/28 04:48:33;;;;;;;11.03;9.03;;;;;;;7.09;100.00;99815.38;5075351;28;20242;-79
2022/03/28 04:51:01;;;;;;;12.60;9.07;;;;;;;7.15;100.00;99823.91;5076153;28;20203;-79
2022/03/28 04:53:29;;;;;;;12.13;8.77;;;;;;;7.18;100.00;99821.16;5088601;28;20196;-79
2022/03/28 04:55:57;;;;;;;12.50;9.23;;;;;;;7.20;100.00;99823.72;5086044;28;20184;-79
2022/03/28 04:58:26;;;;;;;10.07;8.63;;;;;;;7.31;100.00;99816.25;5083770;28;20243;-79
2022/03/28 05:00:57;;;;;;;12.20;9.30;;;;;;;7.13;100.00;99827.50;5083450;28;20268;-79
2022/03/28 05:03:27;;;;;;;12.23;9.37;;;;;;;7.11;100.00;99818.81;5081031;28;20645;-79
2022/03/28 05:05:55;;;;;;;12.80;9.93;;;;;;;6.99;100.00;99822.78;5052026;28;20712;-79
2022/03/28 05:08:24;;;;;;;14.23;9.43;;;;;;;6.85;100.00;99817.16;5082580;28;20200;-79
2022/03/28 05:10:53;;;;;;;16.57;9.97;;;;;;;6.85;100.00;99822.44;5084997;28;20193;-79
2022/03/28 05:13:21;;;;;;;13.83;9.73;;;;;;;6.94;100.00;99808.06;5072004;28;20193;-79
2022/03/28 05:15:51;;;;;;;13.17;9.43;;;;;;;6.99;100.00;99816.66;5074367;28;20359;-79
2022/03/28 05:18:22;;;;;;;13.53;9.30;;;;;;;7.18;100.00;99813.25;5071556;28;20200;-80
2022/03/28 05:20:50;;;;;;;11.23;8.60;;;;;;;7.11;100.00;99810.91;5071267;28;20216;-79
2022/03/28 05:23:18;;;;;;;12.27;9.40;;;;;;;6.95;100.00;99805.41;5078622;28;20195;-79
2022/03/28 05:25:47;;;;;;;11.73;8.87;;;;;;;6.95;100.00;99813.31;5080457;28;20195;-79
2022/03/28 05:28:15;;;;;;;20.57;13.27;;;;;;;7.03;100.00;99813.84;5080133;27;20192;-79
2022/03/28 05:30:44;;;;;;;15.17;10.87;;;;;;;7.00;100.00;99813.97;5079245;28;20200;-79
2022/03/28 05:33:12;;;;;;;14.53;10.07;;;;;;;6.95;100.00;99813.31;5071702;28;20185;-79
2022/03/28 05:35:45;;;;;;;13.97;10.43;;;;;;;7.03;100.00;99816.47;5074849;28;20196;-79
2022/03/28 05:38:13;;;;;;;13.90;10.07;;;;;;;7.03;100.00;99815.59;5054129;28;20704;-78
2022/03/28 05:40:42;;;;;;;17.60;11.20;;;;;;;6.97;100.00;99806.19;5051584;28;20217;-79
2022/03/28 05:43:10;;;;;;;14.97;10.70;;;;;;;6.94;100.00;99816.81;5050199;28;20265;-79
2022/03/28 05:45:39;;;;;;;14.23;10.17;;;;;;;6.87;100.00;99816.22;5053919;28;20221;-79
2022/03/28 05:48:07;;;;;;;16.23;11.40;;;;;;;6.96;100.00;99806.25;5048882;28;20196;-79
2022/03/28 05:50:36;;;;;;;15.93;11.70;;;;;;;7.05;100.00;99805.91;5046954;28;20251;-79
2022/03/28 05:53:09;;;;;;;15.97;11.03;;;;;;;7.12;100.00;99809.97;5034391;28;20231;-79
2022/03/28 05:55:37;;;;;;;13.07;10.20;;;;;;;7.31;100.00;99815.38;5057932;28;20644;-79
2022/03/28 05:58:08;;;;;;;16.80;11.50;;;;;;;7.25;100.00;99815.66;5077474;28;20200;-79
2022/03/28 06:00:39;;;;;;;15.80;11.87;;;;;;;7.06;100.00;99818.16;5053635;28;20193;-78
2022/03/28 06:03:09;;;;;;;16.33;11.83;;;;;;;7.12;100.00;99824.00;5052589;28;20660;-78
2022/03/28 06:05:57;;;;;;;14.73;11.13;;;;;;;7.20;100.00;99821.09;5054006;28;20233;-79
2022/03/28 06:08:27;;;;;;;14.93;11.37;;;;;;;7.18;100.00;99821.16;5053998;28;20212;-79
2022/03/28 06:10:56;;;;;;;12.93;9.80;;;;;;;7.11;100.00;99824.06;5052516;28;20228;-80
2022/03/28 06:13:25;;;;;;;14.33;11.10;;;;;;;7.17;100.00;99822.06;5048617;28;20221;-79
2022/03/28 06:15:53;;;;;;;14.50;11.10;;;;;;;7.23;100.00;99818.31;5053622;28;20193;-79
2022/03/28 06:18:22;;;;;;;17.07;10.60;;;;;;;7.51;100.00;99825.13;5051582;28;20761;-79
2022/03/28 06:20:50;;;;;;;14.40;10.23;;;;;;;7.42;100.00;99818.44;5050465;28;20228;-79
2022/03/28 06:23:18;;;;;;;15.10;11.07;;;;;;;7.38;100.00;99825.63;5047963;28;20209;-79
2022/03/28 06:25:48;;;;;;;14.00;10.60;;;;;;;7.62;100.00;99822.91;5064245;28;20197;-79
2022/03/28 06:28:17;;;;;;;13.37;10.60;;;;;;;7.72;100.00;99821.59;5071052;28;20188;-78
2022/03/28 06:30:46;;;;;;;16.93;11.40;;;;;;;7.78;100.00;99818.72;5060584;28;20188;-79
2022/03/28 06:33:15;;;;;;;17.40;12.70;;;;;;;7.57;100.00;99820.47;5071461;28;20195;-79
2022/03/28 06:35:45;;;;;;;19.73;13.77;;;;;;;7.53;100.00;99816.25;5075412;28;20199;-79
2022/03/28 06:38:13;;;;;;;18.83;13.80;;;;;;;7.55;100.00;99819.69;5077665;28;20238;-79
2022/03/28 06:40:41;;;;;;;20.30;14.13;;;;;;;7.66;100.00;99822.72;5086041;28;20193;-79
2022/03/28 06:43:11;;;;;;;18.87;13.60;;;;;;;8.04;100.00;99823.75;5078288;28;20189;-79
2022/03/28 06:45:39;;;;;;;17.87;13.00;;;;;;;8.11;100.00;99815.56;5072342;28;20683;-79
2022/03/28 06:48:11;;;;;;;16.47;12.50;;;;;;;8.34;100.00;99815.41;5074854;28;20188;-79
2022/03/28 06:51:00;;;;;;;16.70;12.77;;;;;;;8.19;100.00;99813.44;5075549;28;20200;-79
2022/03/28 06:53:28;;;;;;;16.50;12.10;;;;;;;8.38;100.00;99818.78;5073711;28;20263;-79
2022/03/28 06:55:57;;;;;;;17.00;11.97;;;;;;;8.59;100.00;99820.50;5079937;27;20188;-79
2022/03/28 06:58:27;;;;;;;17.27;12.00;;;;;;;8.77;100.00;99810.84;5074954;28;20196;-79
2022/03/28 07:00:56;;;;;;;15.30;11.53;;;;;;;8.68;100.00;99817.41;5074624;28;20220;-79
2022/03/28 07:03:24;;;;;;;17.97;11.47;;;;;;;8.84;100.00;99813.16;5072084;28;20282;-80
2022/03/28 07:05:52;;;;;;;15.80;12.37;;;;;;;9.00;100.00;99809.81;5075818;28;20208;-79
2022/03/28 07:08:21;;;;;;;21.40;12.20;;;;;;;9.18;100.00;99808.94;5069337;28;20246;-79
2022/03/28 07:10:49;;;;;;;16.77;11.57;;;;;;;9.25;100.00;99799.75;5075986;28;20189;-79
2022/03/28 07:13:17;;;;;;;14.47;11.03;;;;;;;9.17;100.00;99786.94;5075744;28;20318;-80
2022/03/28 07:18:35;;;;;;;14.77;11.63;;;;;;;9.51;100.00;99782.63;4969841;28;20226;-79
2022/03/28 07:21:06;;;;;;;16.97;11.53;;;;;;;9.57;100.00;99781.47;4987057;28;20567;-78
2022/03/28 07:23:34;;;;;;;15.73;11.87;;;;;;;9.67;100.00;99778.28;4995036;28;20191;-79
2022/03/28 07:26:03;;;;;;;15.03;11.17;;;;;;;9.73;100.00;99770.03;4995043;28;20217;-79
2022/03/28 07:28:31;;;;;;;15.27;12.00;;;;;;;9.83;100.00;99761.63;4991704;28;20199;-79
2022/03/28 07:31:01;;;;;;;15.30;10.93;;;;;;;10.03;100.00;99770.25;4989754;28;20207;-79
2022/03/28 07:33:29;;;;;;;14.60;11.10;;;;;;;9.92;100.00;99767.31;4987703;28;20226;-80
2022/03/28 07:35:59;;;;;;;15.13;11.50;;;;;;;10.10;100.00;99767.28;4993728;28;20203;-79
2022/03/28 07:38:29;;;;;;;14.87;11.60;;;;;;;10.14;100.00;99764.41;4997428;28;20207;-79
2022/03/28 07:40:57;;;;;;;12.13;10.03;;;;;;;10.17;100.00;99761.59;4994630;28;20203;-79
2022/03/28 07:43:26;;;;;;;14.83;11.47;;;;;;;10.30;100.00;99765.34;4994745;28;20265;-80
2022/03/28 07:45:55;;;;;;;15.87;11.67;;;;;;;10.51;100.00;99765.13;4989011;28;20781;-79
2022/03/28 07:48:24;;;;;;;16.47;10.60;;;;;;;10.47;100.00;99759.13;4994324;28;20191;-79
2022/03/28 07:50:53;;;;;;;16.87;11.43;;;;;;;10.57;100.00;99751.56;4991466;28;20258;-80
2022/03/28 07:53:23;;;;;;;16.27;11.23;;;;;;;10.93;100.00;99756.63;4955848;28;20249;-80
2022/03/28 07:55:51;;;;;;;13.97;11.47;;;;;;;11.02;100.00;99748.16;4989938;28;20684;-79
2022/03/28 07:58:23;;;;;;;14.63;11.67;;;;;;;10.96;100.00;99755.59;4992172;28;20203;-80
2022/03/28 08:00:51;;;;;;;14.30;12.27;;;;;;;11.01;100.00;99745.59;4971544;28;20215;-79
2022/03/28 08:03:20;;;;;;;13.73;11.73;;;;;;;11.25;100.00;99749.50;4986562;28;20242;-79
2022/03/28 08:05:48;;;;;;;13.53;12.07;;;;;;;11.53;100.00;99738.16;4992510;28;20218;-79
2022/03/28 08:08:17;;;;;;;16.07;12.00;;;;;;;11.68;100.00;99737.25;4994124;28;20195;-79
2022/03/28 08:10:49;;;;;;;13.93;11.87;;;;;;;11.95;100.00;99741.88;4990557;28;20207;-79
2022/03/28 08:13:17;;;;;;;15.70;12.60;;;;;;;11.87;100.00;99737.03;4987174;28;20201;-80
2022/03/28 08:15:45;;;;;;;15.57;12.13;;;;;;;12.17;100.00;99723.72;4990253;28;20207;-79
2022/03/28 08:18:16;;;;;;;16.03;11.63;;;;;;;12.15;100.00;99719.41;4992406;28;20217;-80
2022/03/28 08:20:48;;;;;;;16.80;11.80;;;;;;;12.15;100.00;99722.06;4994053;28;20253;-79
2022/03/28 08:23:19;;;;;;;15.77;12.20;;;;;;;12.68;100.00;99713.41;4991115;28;20211;-79
2022/03/28 08:25:49;;;;;;;16.00;11.20;;;;;;;12.48;100.00;99716.47;5011503;28;20199;-80
2022/03/28 08:28:18;;;;;;;16.67;11.60;;;;;;;12.71;100.00;99701.72;5011030;28;20205;-79
2022/03/28 08:30:47;;;;;;;12.90;11.07;;;;;;;12.78;100.00;99695.06;5004792;28;20230;-79
2022/03/28 08:33:16;;;;;;;17.20;12.23;;;;;;;13.14;100.00;99699.81;4963443;28;20333;-80
2022/03/28 08:35:44;;;;;;;16.73;12.20;;;;;;;13.23;100.00;99701.03;5008985;28;20354;-80
2022/03/28 08:38:12;;;;;;;13.07;11.60;;;;;;;13.51;100.00;99692.03;5011733;28;20369;-80
2022/03/28 08:40:43;;;;;;;13.23;10.83;;;;;;;13.80;100.00;99690.06;5009062;28;20217;-80
2022/03/28 08:43:18;;;;;;;13.47;11.27;;;;;;;14.05;100.00;99692.75;5008892;28;20222;-79
2022/03/28 08:45:49;;;;;;;14.93;11.10;;;;;;;13.97;100.00;99689.75;4992334;28;20241;-79
2022/03/28 08:48:18;;;;;;;14.77;10.67;;;;;;;13.73;100.00;99689.66;4989593;28;20285;-79
2022/03/28 08:50:49;;;;;;;14.00;10.20;;;;;;;13.89;100.00;99681.44;4990777;28;20239;-79
2022/03/28 08:53:19;;;;;;;16.30;11.03;;;;;;;13.90;100.00;99678.69;4993687;28;20199;-80
2022/03/28 08:55:48;;;;;;;13.63;10.80;;;;;;;13.78;100.00;99679.50;4993708;28;20274;-81
2022/03/28 08:58:18;;;;;;;13.90;10.53;;;;;;;14.04;100.00;99678.56;4995771;28;20257;-80
2022/03/28 09:00:46;;;;;;;13.73;11.07;;;;;;;14.17;100.00;99667.91;4992145;28;20207;-79
2022/03/28 09:03:14;;;;;;;13.27;10.73;;;;;;;14.62;100.00;99667.41;4993402;28;20215;-80
2022/03/28 09:05:47;;;;;;;14.13;10.20;;;;;;;14.63;100.00;99653.13;4992317;28;20201;-80
2022/03/28 09:08:15;;;;;;;15.70;10.23;;;;;;;14.53;100.00;99656.47;4990485;28;20203;-80
2022/03/28 09:10:52;;;;;;;12.47;10.13;;;;;;;14.65;100.00;99654.72;4988443;28;20653;-80
2022/03/28 09:13:22;;;;;;;12.10;10.40;;;;;;;14.87;100.00;99646.88;4992555;28;20198;-80
2022/03/28 09:15:55;;;;;;;15.83;10.97;;;;;;;15.24;100.00;99640.56;4992074;28;20649;-80
2022/03/28 09:18:29;;;;;;;10.97;9.43;;;;;;;15.45;100.00;99644.31;4992429;28;20235;-80
2022/03/28 09:20:59;;;;;;;12.77;9.90;;;;;;;15.83;100.00;99629.84;4987137;28;20206;-80
2022/03/28 09:23:36;;;;;;;12.43;9.60;;;;;;;16.02;100.00;99633.63;4989883;28;20215;-80
2022/03/28 09:26:12;;;;;;;13.27;9.83;;;;;;;15.61;100.00;99636.81;4995931;28;20207;-80
2022/03/28 09:28:58;;;;;;;11.37;9.93;;;;;;;15.64;100.00;99630.44;4988658;28;20202;-80
2022/03/28 09:31:30;;;;;;;11.03;9.30;;;;;;;16.07;100.00;99624.38;4974394;28;20269;-80
2022/03/28 09:34:07;;;;;;;12.03;10.00;;;;;;;15.62;100.00;99630.50;4988871;28;20677;-80
2022/03/28 09:36:40;;;;;;;11.67;9.27;;;;;;;16.38;100.00;99615.59;4991288;28;20210;-80
2022/03/28 09:39:11;;;;;;;12.73;9.80;;;;;;;16.67;100.00;99618.59;4990477;28;20254;-80
2022/03/28 09:41:39;;;;;;;12.03;9.70;;;;;;;16.87;100.00;99619.66;4993359;28;20211;-80
2022/03/28 09:44:12;;;;;;;13.57;9.67;;;;;;;17.07;100.00;99613.47;4993448;28;20219;-80
2022/03/28 09:46:40;;;;;;;16.03;10.00;;;;;;;17.10;100.00;99610.56;4991806;28;20195;-80
2022/03/28 09:49:09;;;;;;;10.27;9.00;;;;;;;17.22;100.00;99610.53;4993041;28;20199;-80
2022/03/28 09:51:39;;;;;;;11.57;9.63;;;;;;;16.99;100.00;99610.63;4989634;28;20787;-80
2022/03/28 09:54:24;;;;;;;12.53;10.53;;;;;;;17.10;100.00;99605.22;4987034;28;20216;-80
2022/03/28 09:57:10;;;;;;;15.47;10.27;;;;;;;17.32;100.00;99595.38;4993404;28;20278;-80
2022/03/28 09:59:41;;;;;;;9.83;8.83;;;;;;;17.80;100.00;99593.03;4994017;28;20199;-79
2022/03/28 10:02:25;;;;;;;13.07;9.40;;;;;;;17.98;100.00;99590.56;4992034;28;20199;-80
2022/03/28 10:04:56;;;;;;;13.50;9.90;;;;;;;17.57;100.00;99588.78;4952423;28;20216;-80
2022/03/28 10:07:25;;;;;;;10.10;9.03;;;;;;;17.96;100.00;99584.50;4946633;28;20192;-79
2022/03/28 10:09:54;;;;;;;11.83;9.57;;;;;;;17.81;100.00;99578.63;4953554;28;20211;-79
2022/03/28 10:12:24;;;;;;;11.53;9.23;;;;;;;18.49;100.00;99573.50;4932840;29;20252;-79
2022/03/28 10:14:57;;;;;;;13.40;10.07;;;;;;;18.54;100.00;99576.63;4936645;29;20678;-79
2022/03/28 10:17:28;;;;;;;14.43;10.37;;;;;;;17.60;100.00;99581.31;4932793;29;20214;-79
2022/03/28 10:19:57;;;;;;;12.90;9.80;;;;;;;18.06;100.00;99569.31;4933463;29;20318;-80
2022/03/28 10:22:29;;;;;;;11.40;9.30;;;;;;;18.47;100.00;99570.09;4936482;29;20201;-80
2022/03/28 10:25:00;;;;;;;13.20;10.27;;;;;;;17.98;100.00;99558.41;4936277;29;20312;-80
2022/03/28 10:27:29;;;;;;;11.73;10.53;;;;;;;18.24;100.00;99556.94;4932767;29;20201;-79
2022/03/28 10:30:17;;;;;;;11.27;9.80;;;;;;;18.76;100.00;99549.56;4962541;28;20202;-80
2022/03/28 10:32:45;;;;;;;14.17;10.20;;;;;;;18.35;100.00;99550.59;4994752;28;20289;-80
2022/03/28 10:35:17;;;;;;;11.20;10.00;;;;;;;18.58;100.00;99544.00;4994033;28;20202;-80
2022/03/28 10:37:48;;;;;;;12.60;11.30;;;;;;;18.18;100.00;99536.03;4993506;28;20203;-79
2022/03/28 10:40:21;;;;;;;16.70;10.80;;;;;;;18.19;100.00;99531.50;4993623;28;20202;-79
2022/03/28 10:42:52;;;;;;;15.87;11.13;;;;;;;18.90;100.00;99526.81;4992809;28;20203;-79
2022/03/28 10:45:33;;;;;;;10.97;9.80;;;;;;;18.29;100.00;99529.69;4995300;28;20199;-79
2022/03/28 10:48:01;;;;;;;14.83;10.37;;;;;;;18.68;100.00;99519.88;4995975;28;20234;-79
2022/03/28 10:50:32;;;;;;;12.53;9.63;;;;;;;18.72;100.00;99515.06;4993191;28;20211;-80
2022/03/28 10:53:12;;;;;;;13.73;10.20;;;;;;;18.44;94.72;99511.38;4957050;28;20203;-80
2022/03/28 10:55:49;;;;;;;16.00;10.07;;;;;;;19.15;93.73;99514.63;4994775;28;20191;-79
2022/03/28 10:58:21;;;;;;;17.00;9.07;;;;;;;19.88;81.22;99506.78;4995961;28;20191;-80
2022/03/28 11:01:20;;;;;;;12.47;9.40;;;;;;;19.69;81.42;99505.03;4996676;28;20410;-80
2022/03/28 11:03:53;;;;;;;11.33;8.80;;;;;;;19.32;77.49;99491.56;4994220;28;20226;-79
2022/03/28 11:06:43;;;;;;;11.93;8.87;;;;;;;18.93;73.87;99497.00;4958522;28;20704;-79
2022/03/28 11:09:12;;;;;;;12.43;8.63;;;;;;;18.87;71.28;99503.78;4994228;28;20206;-79
2022/03/28 11:11:58;;;;;;;10.17;7.47;;;;;;;19.73;72.63;99484.94;4994465;28;20238;-77
2022/03/28 11:14:40;;;;;;;11.53;7.57;;;;;;;19.81;66.41;99487.72;4993096;28;20206;-79
2022/03/28 11:17:20;;;;;;;11.70;6.90;;;;;;;19.93;62.47;99481.16;4991822;28;20634;-79
2022/03/28 11:19:53;;;;;;;11.65;8.50;;;;;;;20.16;62.71;99486.94;4932748;29;20229;-79
2022/03/28 11:22:40;;;;;;;9.77;7.95;;;;;;;20.14;66.07;99472.81;4935325;29;20193;-79
2022/03/28 11:25:35;;;;;;;9.57;7.68;;;;;;;20.94;63.70;99464.81;4930867;29;20236;-80
2022/03/28 11:28:10;;;;;;;13.73;8.13;;;;;;;20.77;65.18;99470.09;4935303;29;20201;-79
2022/03/28 11:30:48;;;;;;;11.68;7.97;;;;;;;20.40;66.65;99464.00;4934076;29;20616;-79
2022/03/28 11:33:21;;;;;;;8.82;7.10;;;;;;;20.94;63.28;99459.44;4933756;29;20208;-79
2022/03/28 11:35:55;;;;;;;9.75;7.47;;;;;;;20.42;57.70;99453.94;4934828;29;20224;-79
2022/03/28 11:38:25;;;;;;;10.45;6.47;;;;;;;21.22;55.03;99457.44;4971673;28;20202;-79
2022/03/28 11:40:55;;;;;;;8.73;6.30;;;;;;;20.76;52.23;99448.72;4989458;28;20203;-79